KHGR/HGR METAR and TAF weather

Enter ICAO airport designator
Station Type Date Time Source
KHGR METAR 2021/07/30 05:53 UTC NOAA

KHGR 300553Z AUTO 26005KT 10SM FEW065 26/19 A2981 RMK AO2 SLP096 T02560194 10278 20256 58006 $


Station Type Date Time Source
KHGR Decoded METAR 2021/07/30 05:53 UTC NOAA

HAGERSTOWN REGIONAL AIRPORT, MD, United States (KHGR) 39-42N 077-44W 224M
Jul 30, 2021 - 01:53 AM EDT / 2021.07.30 0553 UTC
Wind: from the W (260 degrees) at 6 MPH (5 KT):0
Visibility: 10 mile(s):0
Sky conditions: mostly clear
Temperature: 78.1 F (25.6 C)
Dew Point: 66.9 F (19.4 C)
Relative Humidity: 68%
Pressure (altimeter): 29.81 in. Hg (1009 hPa)
Pressure tendency: 0.02 inches (0.6 hPa) lower than three hours ago
ob: KHGR 300553Z AUTO 26005KT 10SM FEW065 26/19 A2981 RMK AO2 SLP096 T02560194 10278 20256 58006
cycle: 6

Station Type Date Time Source
KHGR TAF UTC NOAA

Error!

Example: see airport list